createdAt,value
2018-11-03T00:00:54.936Z,16.71
2018-11-03T00:05:37.841Z,16.63
2018-11-03T00:10:20.891Z,16.61
2018-11-03T00:15:03.971Z,16.50
2018-11-03T00:19:47.087Z,16.42
2018-11-03T00:24:30.041Z,16.44
2018-11-03T00:29:13.095Z,16.42
2018-11-03T00:33:55.994Z,16.34
2018-11-03T00:38:38.894Z,16.38
2018-11-03T00:43:25.597Z,16.49
2018-11-03T00:48:08.486Z,16.41
2018-11-03T00:52:51.618Z,16.00
2018-11-03T00:57:34.551Z,16.41
2018-11-03T01:02:17.642Z,16.44
2018-11-03T01:07:00.569Z,16.49
2018-11-03T01:11:44.674Z,16.42
2018-11-03T01:16:27.545Z,16.41
2018-11-03T01:21:11.418Z,16.43
2018-11-03T01:25:54.274Z,16.47
2018-11-03T01:30:37.211Z,16.46
2018-11-03T01:35:20.115Z,16.37
2018-11-03T01:40:04.243Z,16.46
2018-11-03T01:44:47.117Z,16.58
2018-11-03T01:49:32.099Z,16.55
2018-11-03T01:54:14.974Z,16.39
2018-11-03T01:58:58.882Z,16.38
2018-11-03T02:03:41.765Z,16.53
2018-11-03T02:08:24.642Z,16.60
2018-11-03T02:13:09.540Z,16.51
2018-11-03T02:17:52.362Z,16.36
2018-11-03T02:22:36.441Z,16.37
2018-11-03T02:27:19.299Z,16.31
2018-11-03T02:32:04.566Z,16.06
2018-11-03T02:36:47.430Z,16.32
2018-11-03T02:41:30.472Z,16.30
2018-11-03T02:46:13.333Z,16.30
2018-11-03T02:50:56.234Z,15.88
2018-11-03T02:55:39.097Z,15.86
2018-11-03T03:00:23.026Z,16.15
2018-11-03T03:05:07.594Z,15.93
2018-11-03T03:09:50.584Z,16.21
2018-11-03T03:14:33.472Z,15.73
2018-11-03T03:19:17.576Z,15.82
2018-11-03T03:24:00.476Z,15.91
2018-11-03T03:28:44.423Z,15.97
2018-11-03T03:33:27.265Z,16.07
2018-11-03T03:38:10.128Z,16.06
2018-11-03T03:42:54.129Z,16.16
2018-11-03T03:47:36.970Z,16.14
2018-11-03T03:52:20.866Z,15.91
2018-11-03T03:57:03.808Z,16.08
2018-11-03T04:01:47.902Z,16.11
2018-11-03T04:06:30.797Z,16.16
2018-11-03T04:11:13.946Z,16.14
2018-11-03T04:15:56.865Z,16.21
2018-11-03T04:20:39.977Z,15.97
2018-11-03T04:25:23.426Z,16.02
2018-11-03T04:30:11.252Z,16.08
2018-11-03T04:34:54.145Z,16.21
2018-11-03T04:39:38.154Z,15.90
2018-11-03T04:44:21.062Z,15.93
2018-11-03T04:49:05.227Z,15.94
2018-11-03T04:53:48.416Z,15.97
2018-11-03T04:58:32.519Z,15.62
2018-11-03T05:03:15.426Z,15.77
2018-11-03T05:07:58.356Z,16.00
2018-11-03T05:12:42.390Z,16.07
2018-11-03T05:17:25.268Z,16.05
2018-11-03T05:22:09.329Z,15.97
2018-11-03T05:26:52.215Z,16.10
2018-11-03T05:31:46.742Z,16.15
2018-11-03T05:36:29.650Z,15.89
2018-11-03T05:42:42.923Z,15.94
2018-11-03T05:47:25.819Z,15.90
2018-11-03T05:52:09.915Z,16.03
2018-11-03T05:56:52.768Z,16.32
2018-11-03T06:01:35.686Z,16.20
2018-11-03T06:06:18.584Z,16.15
2018-11-03T06:11:02.587Z,16.21
2018-11-03T06:15:45.779Z,16.45
2018-11-03T06:21:59.161Z,16.39
2018-11-03T06:26:42.036Z,16.40
2018-11-03T06:31:25.126Z,16.22
2018-11-03T06:36:08.039Z,16.35
2018-11-03T06:40:51.927Z,16.26
2018-11-03T06:45:34.786Z,16.18
2018-11-03T06:50:18.759Z,16.21
2018-11-03T06:55:01.703Z,16.27
2018-11-03T06:59:44.758Z,16.38
2018-11-03T07:04:27.643Z,16.46
2018-11-03T07:09:11.966Z,16.23
2018-11-03T07:13:54.922Z,16.39
2018-11-03T07:18:38.821Z,16.35
2018-11-03T07:23:21.703Z,16.58
2018-11-03T07:28:05.006Z,16.33
2018-11-03T07:32:47.909Z,16.37
2018-11-03T07:37:31.258Z,16.64
2018-11-03T07:42:15.322Z,16.52
2018-11-03T07:46:58.182Z,16.71
2018-11-03T07:51:41.079Z,16.69
2018-11-03T07:56:23.939Z,16.82
2018-11-03T08:01:06.878Z,16.69
2018-11-03T08:05:49.763Z,16.80
2018-11-03T08:10:32.900Z,16.71
2018-11-03T08:15:15.844Z,16.77
2018-11-03T08:19:59.981Z,16.66
2018-11-03T08:24:42.891Z,16.85
2018-11-03T08:29:26.031Z,16.96
2018-11-03T08:34:08.939Z,17.04
2018-11-03T08:38:52.997Z,16.98
2018-11-03T08:43:35.917Z,16.97
2018-11-03T08:48:23.102Z,17.18
2018-11-03T08:53:05.948Z,17.10
2018-11-03T08:57:51.292Z,17.28
2018-11-03T09:02:34.678Z,17.35
2018-11-03T09:07:17.602Z,17.28
2018-11-03T09:12:04.586Z,17.24
2018-11-03T09:16:47.512Z,17.49
2018-11-03T09:21:30.540Z,17.52
2018-11-03T09:26:13.438Z,17.41
2018-11-03T09:30:57.494Z,17.35
2018-11-03T09:35:40.421Z,17.45
2018-11-03T09:40:26.609Z,17.45
2018-11-03T09:45:10.770Z,17.42
2018-11-03T09:49:53.650Z,17.37
2018-11-03T09:54:36.571Z,17.63
2018-11-03T09:59:19.622Z,17.58
2018-11-03T10:04:02.494Z,17.49
2018-11-03T10:08:49.268Z,17.47
2018-11-03T10:13:32.184Z,17.53
2018-11-03T10:18:15.317Z,17.53
2018-11-03T10:22:58.276Z,17.65
2018-11-03T10:27:41.987Z,17.64
2018-11-03T10:32:24.904Z,17.73
2018-11-03T10:37:07.824Z,17.74
2018-11-03T10:41:52.797Z,17.87
2018-11-03T10:46:35.854Z,17.94
2018-11-03T10:51:18.847Z,18.10
2018-11-03T10:56:01.779Z,18.38
2018-11-03T11:02:59.930Z,18.21
2018-11-03T11:07:51.857Z,18.93
2018-11-03T11:12:40.756Z,19.00
2018-11-03T11:22:11.485Z,19.03
2018-11-03T11:26:54.359Z,18.72
2018-11-03T11:31:39.408Z,18.80
2018-11-03T11:36:22.436Z,18.51
2018-11-03T11:41:07.407Z,18.72
2018-11-03T11:45:50.281Z,18.82
2018-11-03T11:50:35.203Z,18.86
2018-11-03T11:55:18.236Z,18.33
2018-11-03T12:00:02.296Z,18.20
2018-11-03T12:04:45.299Z,18.94
2018-11-03T12:09:28.175Z,19.50
2018-11-03T12:14:11.083Z,19.16
2018-11-03T12:18:55.103Z,18.79
2018-11-03T12:23:38.022Z,19.25
2018-11-03T12:28:24.825Z,19.22
2018-11-03T12:33:07.724Z,19.18
2018-11-03T12:37:51.673Z,19.18
2018-11-03T12:42:34.590Z,18.91
2018-11-03T12:47:21.344Z,18.95
2018-11-03T12:52:04.250Z,18.79
2018-11-03T12:56:47.139Z,18.65
2018-11-03T13:01:31.283Z,18.61
2018-11-03T13:06:14.202Z,18.63
2018-11-03T13:10:58.279Z,18.63
2018-11-03T13:15:41.175Z,18.11
2018-11-03T13:20:24.307Z,18.17
2018-11-03T13:25:08.135Z,18.17
2018-11-03T13:29:51.054Z,18.18
2018-11-03T13:34:34.026Z,18.06
2018-11-03T13:39:25.802Z,18.17
2018-11-03T13:44:08.695Z,18.14
2018-11-03T13:48:53.701Z,18.14
2018-11-03T13:53:36.558Z,18.17
2018-11-03T13:58:20.737Z,18.11
2018-11-03T14:03:04.102Z,18.10
2018-11-03T14:07:47.246Z,18.02
2018-11-03T14:12:30.086Z,17.98
2018-11-03T14:17:13.095Z,17.89
2018-11-03T14:21:55.895Z,18.02
2018-11-03T14:26:38.783Z,17.93
2018-11-03T14:31:22.619Z,17.72
2018-11-03T14:36:13.331Z,17.63
2018-11-03T14:40:56.339Z,17.72
2018-11-03T14:45:40.125Z,17.51
2018-11-03T14:50:27.619Z,17.64
2018-11-03T14:55:11.560Z,17.63
2018-11-03T14:59:54.493Z,17.81
2018-11-03T15:04:37.363Z,17.77
2018-11-03T15:09:23.599Z,17.63
2018-11-03T15:14:07.995Z,17.60
2018-11-03T15:18:54.026Z,17.68
2018-11-03T15:23:36.951Z,17.61
2018-11-03T15:28:21.068Z,17.74
2018-11-03T15:33:04.058Z,17.57
2018-11-03T15:37:47.054Z,17.70
2018-11-03T15:42:29.938Z,17.60
2018-11-03T15:47:12.863Z,17.33
2018-11-03T15:51:55.754Z,17.50
2018-11-03T15:56:38.628Z,17.56
2018-11-03T16:01:21.538Z,17.63
2018-11-03T16:06:04.480Z,17.62
2018-11-03T16:10:47.598Z,17.56
2018-11-03T16:15:30.452Z,17.63
2018-11-03T16:20:13.623Z,17.63
2018-11-03T16:24:56.490Z,17.63
2018-11-03T16:29:43.435Z,17.64
2018-11-03T16:34:26.330Z,17.67
2018-11-03T16:39:11.524Z,17.77
2018-11-03T16:43:54.394Z,17.70
2018-11-03T16:48:39.326Z,17.64
2018-11-03T16:53:22.230Z,17.64
2018-11-03T16:58:07.389Z,17.36
2018-11-03T17:02:50.274Z,17.39
2018-11-03T17:07:35.192Z,17.47
2018-11-03T17:12:18.111Z,17.38
2018-11-03T17:17:03.294Z,17.26
2018-11-03T17:21:46.244Z,17.30
2018-11-03T17:26:29.273Z,17.20
2018-11-03T17:31:12.535Z,17.20
2018-11-03T17:35:55.429Z,17.37
2018-11-03T17:40:38.443Z,17.37
2018-11-03T17:45:21.353Z,17.25
2018-11-03T17:50:06.994Z,17.28
2018-11-03T17:54:50.005Z,17.37
2018-11-03T17:59:34.068Z,17.14
2018-11-03T18:04:17.008Z,17.14
2018-11-03T18:09:01.352Z,17.03
2018-11-03T18:13:44.231Z,17.06
2018-11-03T18:18:27.402Z,17.16
2018-11-03T18:23:10.298Z,16.87
2018-11-03T18:27:53.359Z,16.96
2018-11-03T18:32:36.304Z,17.19
2018-11-03T18:37:20.473Z,17.04
2018-11-03T18:42:03.434Z,17.12
2018-11-03T18:46:46.569Z,16.99
2018-11-03T18:51:29.423Z,16.89
2018-11-03T18:56:12.462Z,17.03
2018-11-03T19:00:55.862Z,17.10
2018-11-03T19:05:38.813Z,17.28
2018-11-03T19:10:22.074Z,17.24
2018-11-03T19:15:07.250Z,17.12
2018-11-03T19:19:50.954Z,17.24
2018-11-03T19:24:33.866Z,17.19
2018-11-03T19:47:54.766Z,17.17
2018-11-03T19:52:53.653Z,17.11
2018-11-03T19:57:48.711Z,16.88
2018-11-03T20:02:36.537Z,16.98
2018-11-03T20:07:46.878Z,16.92
2018-11-03T20:12:32.591Z,16.79
2018-11-03T20:22:43.696Z,16.74
2018-11-03T20:27:30.872Z,16.32
2018-11-03T20:32:24.717Z,16.46
2018-11-03T20:37:11.524Z,16.38
2018-11-03T20:41:55.547Z,16.38
2018-11-03T20:46:40.112Z,16.40
2018-11-03T20:51:23.255Z,16.05
2018-11-03T20:56:07.438Z,15.89
2018-11-03T21:00:50.504Z,16.23
2018-11-03T21:05:33.516Z,15.98
2018-11-03T21:10:16.659Z,15.93
2018-11-03T21:14:59.589Z,15.86
2018-11-03T21:19:56.932Z,16.04
2018-11-03T21:24:40.668Z,15.98
2018-11-03T21:29:24.030Z,16.03
2018-11-03T21:34:07.824Z,15.99
2018-11-03T21:38:50.967Z,16.00
2018-11-03T21:43:34.092Z,15.79
2018-11-03T21:48:17.372Z,15.62
2018-11-03T21:53:00.500Z,15.57
2018-11-03T21:57:43.642Z,15.52
2018-11-03T22:02:26.736Z,15.34
2018-11-03T22:07:10.041Z,15.38
2018-11-03T22:11:53.185Z,15.39
2018-11-03T22:16:36.396Z,15.46
2018-11-03T22:21:19.564Z,15.44
2018-11-03T22:26:02.959Z,15.28
2018-11-03T22:30:46.097Z,15.20
2018-11-03T22:35:29.298Z,15.10
2018-11-03T22:40:12.459Z,14.96
2018-11-03T22:44:55.555Z,15.36
2018-11-03T22:49:38.815Z,15.13
2018-11-03T22:54:21.906Z,15.08
2018-11-03T22:59:07.165Z,15.25
2018-11-03T23:03:50.245Z,15.32
2018-11-03T23:08:33.494Z,15.37
2018-11-03T23:13:16.714Z,15.35
2018-11-03T23:18:00.669Z,15.19
2018-11-03T23:22:43.654Z,15.20
2018-11-03T23:27:27.662Z,15.12
2018-11-03T23:32:10.638Z,15.08
2018-11-03T23:36:54.754Z,15.03
2018-11-03T23:41:38.219Z,15.02
2018-11-03T23:46:21.358Z,14.94
2018-11-03T23:51:04.368Z,14.95
2018-11-03T23:55:47.522Z,15.14
